SA-0001 weather

Public forecast

Using degrees Celsius for public forecast. Weather courtesy of forecast.io.

Closest aviation weather report (METAR) to Al Bir Highway Strip

Closest report is Tabuk Airport, 39.6 nm (73.3 km) SE. Retrieved 2020/08/09 08:00 UTC (44 minutes ago):

OETB 090800Z 32004KT CAVOK 35/03 Q1010 NOSIG

Closest aviation forecast (TAF) to Al Bir Highway Strip

Forecast is more than 6 hours old.

Closest forecast is Tabuk Airport, 39.6 nm (73.3 km) SE. Retrieved 2020-08-09 00:03 UTC (9 hours ago):

TAF TAF OETB 082300Z 0900/1006 33006G16KT 7000 NSC TEMPO 0900/0912 4000 DU BLDU